createdAt,value
2016-04-30T00:00:47.100Z,6.04
2016-04-30T00:01:47.494Z,5.99
2016-04-30T00:02:32.762Z,5.99
2016-04-30T00:03:32.998Z,6.03
2016-04-30T00:04:32.846Z,6
2016-04-30T00:05:32.785Z,6.04
2016-04-30T00:06:32.804Z,5.99
2016-04-30T00:07:46.682Z,6
2016-04-30T00:08:32.762Z,5.97
2016-04-30T00:09:32.312Z,5.94
2016-04-30T00:10:32.768Z,5.93
2016-04-30T00:11:32.754Z,5.94
2016-04-30T00:12:32.757Z,5.83
2016-04-30T00:14:33.388Z,5.82
2016-04-30T00:15:32.593Z,5.91
2016-04-30T00:16:32.612Z,5.89
2016-04-30T00:17:32.770Z,5.79
2016-04-30T00:18:33.461Z,5.79
2016-04-30T00:19:32.761Z,5.72
2016-04-30T00:20:32.639Z,5.81
2016-04-30T00:21:32.281Z,5.81
2016-04-30T00:22:32.737Z,5.68
2016-04-30T00:23:32.740Z,5.75
2016-04-30T00:24:32.586Z,5.76
2016-04-30T00:25:32.746Z,5.76
2016-04-30T00:26:32.983Z,5.65
2016-04-30T00:27:32.580Z,5.75
2016-04-30T00:28:32.738Z,5.72
2016-04-30T00:29:32.772Z,5.75
2016-04-30T00:30:32.774Z,5.68
2016-04-30T00:31:32.762Z,5.67
2016-04-30T00:32:32.780Z,5.65
2016-04-30T00:33:33.252Z,5.63
2016-04-30T00:34:32.926Z,5.63
2016-04-30T00:35:32.726Z,5.63
2016-04-30T00:36:32.775Z,5.74
2016-04-30T00:37:32.732Z,5.6
2016-04-30T00:38:32.749Z,5.61
2016-04-30T00:39:32.923Z,5.56
2016-04-30T00:40:32.723Z,5.72
2016-04-30T00:41:32.726Z,5.61
2016-04-30T00:42:32.745Z,5.61
2016-04-30T00:43:32.732Z,5.57
2016-04-30T00:44:32.796Z,5.58
2016-04-30T00:45:32.565Z,5.58
2016-04-30T00:46:32.552Z,5.65
2016-04-30T00:47:32.711Z,5.57
2016-04-30T00:48:32.714Z,5.56
2016-04-30T00:49:32.560Z,5.46
2016-04-30T00:50:32.547Z,5.58
2016-04-30T00:51:32.753Z,5.6
2016-04-30T00:52:32.709Z,5.49
2016-04-30T00:53:32.384Z,5.53
2016-04-30T00:54:32.714Z,5.51
2016-04-30T00:55:32.936Z,5.46
2016-04-30T00:56:32.782Z,5.56
2016-04-30T00:57:32.581Z,5.4
2016-04-30T00:58:32.819Z,5.56
2016-04-30T00:59:32.697Z,5.45
2016-04-30T01:00:32.746Z,5.45
2016-04-30T01:01:32.561Z,5.43
2016-04-30T01:02:32.516Z,5.43
2016-04-30T01:03:33.302Z,5.42
2016-04-30T01:04:32.710Z,5.42
2016-04-30T01:05:32.915Z,5.33
2016-04-30T01:06:32.528Z,5.36
2016-04-30T01:07:32.921Z,5.35
2016-04-30T01:08:32.924Z,5.4
2016-04-30T01:09:32.535Z,5.38
2016-04-30T01:10:32.663Z,5.24
2016-04-30T01:11:32.541Z,5.31
2016-04-30T01:12:32.544Z,5.27
2016-04-30T01:13:32.859Z,5.25
2016-04-30T01:14:32.674Z,5.22
2016-04-30T01:15:32.662Z,5.21
2016-04-30T01:16:32.507Z,5.25
2016-04-30T01:17:32.682Z,5.27
2016-04-30T01:18:32.717Z,5.24
2016-04-30T01:19:32.656Z,5.28
2016-04-30T01:20:32.862Z,5.22
2016-04-30T01:21:32.850Z,5.27
2016-04-30T01:22:32.648Z,5.17
2016-04-30T01:23:32.651Z,5.21
2016-04-30T01:24:32.670Z,5.2
2016-04-30T01:25:32.891Z,5.13
2016-04-30T01:26:32.691Z,5.22
2016-04-30T01:27:32.850Z,5.17
2016-04-30T01:28:32.539Z,5.13
2016-04-30T01:29:32.667Z,5.09
2016-04-30T01:30:32.201Z,5.12
2016-04-30T01:31:32.672Z,5.13
2016-04-30T01:32:32.645Z,5.1
2016-04-30T01:33:33.194Z,5.1
2016-04-30T01:34:32.635Z,5.06
2016-04-30T01:35:32.637Z,5.03
2016-04-30T01:36:32.827Z,5.04
2016-04-30T01:37:32.471Z,5.02
2016-04-30T01:38:32.707Z,5
2016-04-30T01:39:32.866Z,4.97
2016-04-30T01:40:32.635Z,5.02
2016-04-30T01:41:46.715Z,4.92
2016-04-30T01:42:32.827Z,5.03
2016-04-30T01:43:32.643Z,4.97
2016-04-30T01:44:32.505Z,4.99
2016-04-30T01:45:32.618Z,4.97
2016-04-30T01:46:32.698Z,4.99
2016-04-30T01:47:32.809Z,4.99
2016-04-30T01:48:32.531Z,4.97
2016-04-30T01:49:32.612Z,4.92
2016-04-30T01:50:46.880Z,5.04
2016-04-30T01:51:32.806Z,4.94
2016-04-30T01:52:32.604Z,5
2016-04-30T01:53:32.654Z,4.96
2016-04-30T01:54:32.453Z,4.94
2016-04-30T01:55:46.691Z,4.99
2016-04-30T01:56:32.709Z,4.99
2016-04-30T01:57:32.649Z,4.97
2016-04-30T01:58:32.589Z,4.97
2016-04-30T01:59:32.655Z,5.02
2016-04-30T02:00:32.595Z,5.02
2016-04-30T02:01:33.019Z,4.99
2016-04-30T02:02:32.428Z,5.06
2016-04-30T02:03:32.431Z,4.94
2016-04-30T02:04:33.044Z,5.06
2016-04-30T02:05:32.436Z,5.02
2016-04-30T02:06:32.580Z,5
2016-04-30T02:07:32.598Z,5.06
2016-04-30T02:08:32.772Z,4.94
2016-04-30T02:09:32.588Z,4.94
2016-04-30T02:10:32.574Z,5
2016-04-30T02:11:32.593Z,4.99
2016-04-30T02:12:32.580Z,4.92
2016-04-30T02:13:32.615Z,4.96
2016-04-30T02:14:32.429Z,4.92
2016-04-30T02:15:32.556Z,4.91
2016-04-30T02:16:32.559Z,4.94
2016-04-30T02:17:32.563Z,4.92
2016-04-30T02:18:33.190Z,4.91
2016-04-30T02:19:32.599Z,4.86
2016-04-30T02:20:32.554Z,4.89
2016-04-30T02:21:32.761Z,4.8
2016-04-30T02:22:32.592Z,4.91
2016-04-30T02:23:32.579Z,4.82
2016-04-30T02:24:32.753Z,4.85
2016-04-30T02:25:32.740Z,4.85
2016-04-30T02:26:32.539Z,4.92
2016-04-30T02:27:32.542Z,4.77
2016-04-30T02:28:32.545Z,4.75
2016-04-30T02:29:32.563Z,4.77
2016-04-30T02:30:32.317Z,4.82
2016-04-30T02:31:32.100Z,4.77
2016-04-30T02:32:32.728Z,4.75
2016-04-30T02:33:32.543Z,4.75
2016-04-30T02:34:32.514Z,4.7
2016-04-30T02:35:32.548Z,4.69
2016-04-30T02:36:32.519Z,4.66
2016-04-30T02:37:32.710Z,4.67
2016-04-30T02:38:32.494Z,4.66
2016-04-30T02:39:32.512Z,4.66
2016-04-30T02:40:32.796Z,4.66
2016-04-30T02:41:32.596Z,4.7
2016-04-30T02:42:32.504Z,4.65
2016-04-30T02:43:32.507Z,4.65
2016-04-30T02:44:32.510Z,4.7
2016-04-30T02:45:32.497Z,4.63
2016-04-30T02:46:32.499Z,4.65
2016-04-30T02:47:46.565Z,4.69
2016-04-30T02:48:32.692Z,4.63
2016-04-30T02:49:32.712Z,4.63
2016-04-30T02:50:32.495Z,4.69
2016-04-30T02:51:32.482Z,4.62
2016-04-30T02:52:46.765Z,4.66
2016-04-30T02:53:32.487Z,4.7
2016-04-30T02:54:32.677Z,4.65
2016-04-30T02:55:32.477Z,4.63
2016-04-30T02:56:32.324Z,4.63
2016-04-30T02:58:32.564Z,4.63
2016-04-30T02:59:32.894Z,4.65
2016-04-30T03:00:32.458Z,4.63
2016-04-30T03:01:32.664Z,4.66
2016-04-30T03:02:32.464Z,4.58
2016-04-30T03:03:32.686Z,4.65
2016-04-30T03:04:32.470Z,4.51
2016-04-30T03:05:32.441Z,4.6
2016-04-30T03:06:32.460Z,4.59
2016-04-30T03:07:32.463Z,4.52
2016-04-30T03:08:46.731Z,4.55
2016-04-30T03:09:46.515Z,4.54
2016-04-30T03:10:32.689Z,4.6
2016-04-30T03:11:32.457Z,4.5
2016-04-30T03:12:32.444Z,4.59
2016-04-30T03:14:32.637Z,4.58
2016-04-30T03:15:32.625Z,4.55
2016-04-30T03:17:32.458Z,4.5
2016-04-30T03:18:32.429Z,4.48
2016-04-30T03:19:34.167Z,4.62
2016-04-30T03:20:46.684Z,4.47
2016-04-30T03:21:32.625Z,4.59
2016-04-30T03:22:32.253Z,4.59
2016-04-30T03:23:32.412Z,4.51
2016-04-30T03:24:32.258Z,4.47
2016-04-30T03:25:32.402Z,4.47
2016-04-30T03:26:32.404Z,4.45
2016-04-30T03:28:32.425Z,4.47
2016-04-30T03:29:46.506Z,4.44
2016-04-30T03:30:32.478Z,4.47
2016-04-30T03:31:32.417Z,4.45
2016-04-30T03:32:32.438Z,4.47
2016-04-30T03:33:32.681Z,4.52
2016-04-30T03:34:34.409Z,4.47
2016-04-30T03:35:32.589Z,4.44
2016-04-30T03:36:32.630Z,4.48
2016-04-30T03:37:32.201Z,4.48
2016-04-30T03:38:32.519Z,4.52
2016-04-30T03:39:32.525Z,4.42
2016-04-30T03:40:32.780Z,4.48
2016-04-30T03:41:32.724Z,4.47
2016-04-30T03:42:32.765Z,4.5
2016-04-30T03:43:32.260Z,4.5
2016-04-30T03:44:32.738Z,4.48
2016-04-30T03:45:32.748Z,4.5
2016-04-30T03:46:32.742Z,4.44
2016-04-30T03:47:32.341Z,4.5
2016-04-30T03:48:32.971Z,4.47
2016-04-30T03:49:32.899Z,4.45
2016-04-30T03:50:32.607Z,4.51
2016-04-30T03:51:32.769Z,4.5
2016-04-30T03:52:32.773Z,4.6
2016-04-30T03:53:47.042Z,4.5
2016-04-30T03:54:32.796Z,4.62
2016-04-30T03:55:33.017Z,4.51
2016-04-30T03:56:32.755Z,4.59
2016-04-30T03:57:32.758Z,4.59
2016-04-30T03:58:32.621Z,4.58
2016-04-30T03:59:32.748Z,4.63
2016-04-30T04:00:32.736Z,4.59
2016-04-30T04:02:32.727Z,4.72
2016-04-30T04:03:32.730Z,4.67
2016-04-30T04:04:32.935Z,4.7
2016-04-30T04:05:32.718Z,4.78
2016-04-30T04:06:32.924Z,4.75
2016-04-30T04:07:32.926Z,4.72
2016-04-30T04:08:32.915Z,4.85
2016-04-30T04:09:32.746Z,4.77
2016-04-30T04:10:32.935Z,4.84
2016-04-30T04:11:33.329Z,4.85
2016-04-30T04:12:46.784Z,5
2016-04-30T04:13:32.709Z,4.99
2016-04-30T04:14:32.712Z,5.02
2016-04-30T04:15:32.699Z,5.03
2016-04-30T04:16:32.904Z,4.86
2016-04-30T04:17:32.720Z,5.03
2016-04-30T04:18:32.550Z,5.04
2016-04-30T04:19:32.803Z,4.97
2016-04-30T04:20:32.915Z,5.03
2016-04-30T04:21:32.918Z,5.06
2016-04-30T04:22:46.780Z,5.13
2016-04-30T04:23:32.923Z,5.2
2016-04-30T04:24:32.660Z,5.13
2016-04-30T04:25:32.522Z,5.24
2016-04-30T04:26:32.681Z,5.21
2016-04-30T04:27:32.559Z,5.27
2016-04-30T04:28:32.656Z,5.31
2016-04-30T04:29:32.674Z,5.27
2016-04-30T04:30:32.864Z,5.39
2016-04-30T04:31:32.882Z,5.46
2016-04-30T04:32:32.666Z,5.48
2016-04-30T04:33:33.106Z,5.48
2016-04-30T04:34:46.735Z,5.56
2016-04-30T04:35:32.674Z,5.54
2016-04-30T04:36:32.740Z,5.54
2016-04-30T04:37:32.493Z,5.56
2016-04-30T04:38:46.963Z,5.57
2016-04-30T04:39:32.638Z,5.6
2016-04-30T04:40:32.844Z,5.67
2016-04-30T04:41:32.659Z,5.76
2016-04-30T04:42:32.662Z,5.78
2016-04-30T04:43:32.727Z,5.78
2016-04-30T04:44:32.151Z,5.82
2016-04-30T04:45:46.936Z,5.83
2016-04-30T04:46:32.642Z,5.93
2016-04-30T04:47:32.895Z,6
2016-04-30T04:48:32.647Z,6.03
2016-04-30T04:49:32.712Z,6.06
2016-04-30T04:50:32.511Z,6.01
2016-04-30T04:51:32.655Z,6.17
2016-04-30T04:52:32.657Z,6.17
2016-04-30T04:53:32.661Z,6.12
2016-04-30T04:55:32.838Z,6.31
2016-04-30T04:56:32.652Z,6.15
2016-04-30T04:57:33.061Z,6.33
2016-04-30T04:58:32.846Z,6.3
2016-04-30T04:59:47.130Z,6.37
2016-04-30T05:00:32.633Z,6.46
2016-04-30T05:01:32.479Z,6.43
2016-04-30T05:02:32.638Z,6.54
2016-04-30T05:03:32.515Z,6.55
2016-04-30T05:04:32.502Z,6.54
2016-04-30T05:05:32.677Z,6.61
2016-04-30T05:06:32.618Z,6.71
2016-04-30T05:07:32.635Z,6.71
2016-04-30T05:08:32.638Z,6.69
2016-04-30T05:09:46.890Z,6.84
2016-04-30T05:10:32.643Z,6.76
2016-04-30T05:11:33.256Z,6.87
2016-04-30T05:12:32.618Z,6.89
2016-04-30T05:13:32.620Z,6.85
2016-04-30T05:14:32.482Z,6.98
2016-04-30T05:15:32.610Z,6.97
2016-04-30T05:16:32.628Z,6.99
2016-04-30T05:17:32.631Z,7.02
2016-04-30T05:18:33.071Z,7.12
2016-04-30T05:20:32.842Z,7.27
2016-04-30T05:21:32.642Z,7.21
2016-04-30T05:22:32.628Z,7.37
2016-04-30T05:23:32.631Z,7.39
2016-04-30T05:24:32.666Z,7.37
2016-04-30T05:25:32.669Z,7.52
2016-04-30T05:26:32.608Z,7.55
2016-04-30T05:27:32.830Z,7.52
2016-04-30T05:28:32.473Z,7.61
2016-04-30T05:29:47.038Z,7.64
2016-04-30T05:30:32.619Z,7.63
2016-04-30T05:31:32.825Z,7.83
2016-04-30T05:32:32.655Z,7.85
2016-04-30T05:33:32.908Z,7.87
2016-04-30T05:34:32.474Z,7.89
2016-04-30T05:35:32.632Z,7.89
2016-04-30T05:36:32.652Z,7.9
2016-04-30T05:37:32.701Z,7.95
2016-04-30T05:38:32.829Z,8.05
2016-04-30T05:39:32.659Z,8.1
2016-04-30T05:40:32.646Z,8.18
2016-04-30T05:41:32.476Z,8.1
2016-04-30T05:42:32.479Z,8.15
2016-04-30T05:43:32.373Z,8.26
2016-04-30T05:44:32.485Z,8.19
2016-04-30T05:45:33.051Z,8.28
2016-04-30T05:46:32.631Z,8.37
2016-04-30T05:47:32.853Z,8.34
2016-04-30T05:48:32.637Z,8.41
2016-04-30T05:49:32.951Z,8.48
2016-04-30T05:50:32.876Z,8.4
2016-04-30T05:51:32.831Z,8.48
2016-04-30T05:52:32.631Z,8.5
2016-04-30T05:53:32.650Z,8.59
2016-04-30T05:54:32.667Z,8.59
2016-04-30T05:55:32.655Z,8.66
2016-04-30T05:56:32.673Z,8.66
2016-04-30T05:57:32.395Z,8.79
2016-04-30T05:58:32.633Z,8.81
2016-04-30T05:59:32.323Z,8.81
2016-04-30T06:00:46.730Z,8.99
2016-04-30T06:01:32.655Z,9.02
2016-04-30T06:02:32.659Z,8.96
2016-04-30T06:03:32.864Z,9.13
2016-04-30T06:04:32.524Z,9.14
2016-04-30T06:05:32.651Z,9.15
2016-04-30T06:06:32.654Z,9.28
2016-04-30T06:07:32.875Z,9.18
2016-04-30T06:08:32.893Z,9.28
2016-04-30T06:09:32.505Z,9.28
2016-04-30T06:10:32.680Z,9.36
2016-04-30T06:11:32.918Z,9.42
2016-04-30T06:12:32.716Z,9.5
2016-04-30T06:13:32.532Z,9.56
2016-04-30T06:14:32.690Z,9.51
2016-04-30T06:15:32.865Z,9.66
2016-04-30T06:17:00.837Z,9.72
2016-04-30T06:17:33.120Z,9.83
2016-04-30T06:19:33.282Z,9.84
2016-04-30T06:20:32.567Z,9.96
2016-04-30T06:21:32.694Z,9.99
2016-04-30T06:22:32.697Z,10.08
2016-04-30T06:23:32.709Z,10.25
2016-04-30T06:24:32.696Z,10.26
2016-04-30T06:25:32.714Z,10.27
2016-04-30T06:26:32.905Z,10.36
2016-04-30T06:27:32.705Z,10.42
2016-04-30T06:28:32.722Z,10.4
2016-04-30T06:29:32.960Z,10.53
2016-04-30T06:30:32.553Z,10.47
2016-04-30T06:31:46.794Z,10.66
2016-04-30T06:32:33.155Z,10.6
2016-04-30T06:33:32.733Z,10.66
2016-04-30T06:34:32.799Z,10.64
2016-04-30T06:35:46.804Z,10.78
2016-04-30T06:36:32.947Z,10.81
2016-04-30T06:37:32.744Z,10.85
2016-04-30T06:38:32.746Z,10.86
2016-04-30T06:39:32.624Z,10.94
2016-04-30T06:40:32.768Z,11
2016-04-30T06:41:32.818Z,11.09
2016-04-30T06:42:32.976Z,10.99
2016-04-30T06:43:32.463Z,11.14
2016-04-30T06:44:32.981Z,11.19
2016-04-30T06:45:32.953Z,11.19
2016-04-30T06:46:33.380Z,11.29
2016-04-30T06:47:32.973Z,11.37
2016-04-30T06:48:33.180Z,11.44
2016-04-30T06:49:32.636Z,11.51
2016-04-30T06:50:33.029Z,11.52
2016-04-30T06:51:32.782Z,11.58
2016-04-30T06:52:32.816Z,11.6
2016-04-30T06:53:32.786Z,11.67
2016-04-30T06:54:32.634Z,11.62
2016-04-30T06:55:32.168Z,11.67
2016-04-30T06:56:32.639Z,11.82
2016-04-30T06:57:32.829Z,11.82
2016-04-30T06:58:33.082Z,11.95
2016-04-30T06:59:32.835Z,11.98
2016-04-30T07:00:32.869Z,12.12
2016-04-30T07:01:32.825Z,12.24
2016-04-30T07:02:32.874Z,12.29
2016-04-30T07:03:47.114Z,12.38
2016-04-30T07:04:46.913Z,12.52
2016-04-30T07:05:33.069Z,12.54
2016-04-30T07:06:33.056Z,12.54
2016-04-30T07:07:32.903Z,12.72
2016-04-30T07:08:32.874Z,12.83
2016-04-30T07:09:33.112Z,12.83
2016-04-30T07:10:32.911Z,12.95
2016-04-30T07:12:32.885Z,13.08
2016-04-30T07:13:32.935Z,13.19
2016-04-30T07:14:32.906Z,13.2
2016-04-30T07:15:32.753Z,13.28
2016-04-30T07:16:32.959Z,13.32
2016-04-30T07:17:32.915Z,13.32
2016-04-30T07:18:32.917Z,13.46
2016-04-30T07:19:33.185Z,13.48
2016-04-30T07:20:32.984Z,13.49
2016-04-30T07:21:32.815Z,13.48
2016-04-30T07:22:47.212Z,13.55
2016-04-30T07:23:32.962Z,13.62
2016-04-30T07:24:32.995Z,13.64
2016-04-30T07:25:33.076Z,13.69
2016-04-30T07:26:47.066Z,13.81
2016-04-30T07:27:33.066Z,13.75
2016-04-30T07:28:33.256Z,13.85
2016-04-30T07:29:32.759Z,13.84
2016-04-30T07:30:33.465Z,13.95
2016-04-30T07:31:32.874Z,14.02
2016-04-30T07:32:33.283Z,13.82
2016-04-30T07:33:33.066Z,13.88
2016-04-30T07:34:32.897Z,13.87
2016-04-30T07:35:33.010Z,13.99
2016-04-30T07:36:33.044Z,14.03
2016-04-30T07:38:32.924Z,14.07
2016-04-30T07:39:33.068Z,14.17
2016-04-30T07:40:33.257Z,14.22
2016-04-30T07:41:33.088Z,14.35
2016-04-30T07:42:33.091Z,14.33
2016-04-30T07:43:33.281Z,14.43
2016-04-30T07:44:32.940Z,14.42
2016-04-30T07:45:33.380Z,14.46
2016-04-30T07:46:33.336Z,14.5
2016-04-30T07:47:33.135Z,14.51
2016-04-30T07:48:32.951Z,14.55
2016-04-30T07:49:33.610Z,14.51
2016-04-30T07:50:32.847Z,14.6
2016-04-30T07:51:33.006Z,14.6
2016-04-30T07:52:33.164Z,14.58
2016-04-30T07:53:33.151Z,14.7
2016-04-30T07:54:33.373Z,14.62
2016-04-30T07:55:33.032Z,14.68
2016-04-30T07:56:33.175Z,14.64
2016-04-30T07:57:33.209Z,14.81
2016-04-30T07:58:33.212Z,14.78
2016-04-30T07:59:33.480Z,14.77
2016-04-30T08:00:33.217Z,14.8
2016-04-30T08:01:33.220Z,14.8
2016-04-30T08:02:33.222Z,14.84
2016-04-30T08:03:33.288Z,14.81
2016-04-30T08:04:33.353Z,14.83
2016-04-30T08:05:33.152Z,14.84
2016-04-30T08:06:33.249Z,14.81
2016-04-30T08:07:32.782Z,14.81
2016-04-30T08:08:33.489Z,14.89
2016-04-30T08:09:47.354Z,14.91
2016-04-30T08:10:33.291Z,14.92
2016-04-30T08:11:33.496Z,14.95
2016-04-30T08:13:47.614Z,15.03
2016-04-30T08:14:33.786Z,15.06
2016-04-30T08:15:33.351Z,15.01
2016-04-30T08:16:33.370Z,15.02
2016-04-30T08:17:33.545Z,15.07
2016-04-30T08:18:33.375Z,15.1
2016-04-30T08:19:33.409Z,15.03
2016-04-30T08:20:33.428Z,15.06
2016-04-30T08:21:47.667Z,15.02
2016-04-30T08:22:33.276Z,15.03
2016-04-30T08:23:33.420Z,15.13
2016-04-30T08:25:33.442Z,15.1
2016-04-30T08:26:33.537Z,15.07
2016-04-30T08:28:33.450Z,14.92
2016-04-30T08:29:33.467Z,15.03
2016-04-30T08:30:33.672Z,14.95
2016-04-30T08:32:33.491Z,14.83
2016-04-30T08:33:33.494Z,14.8
2016-04-30T08:34:33.371Z,14.89
2016-04-30T08:35:33.343Z,14.8
2016-04-30T08:36:33.501Z,14.83
2016-04-30T08:37:33.489Z,14.8
2016-04-30T08:38:33.554Z,14.75
2016-04-30T08:39:33.681Z,14.78
2016-04-30T08:41:33.734Z,14.8
2016-04-30T08:42:33.549Z,14.84
2016-04-30T08:43:33.442Z,14.88
2016-04-30T08:44:33.398Z,14.91
2016-04-30T08:45:33.604Z,14.95
2016-04-30T08:46:33.998Z,14.99
2016-04-30T08:47:33.984Z,14.98
2016-04-30T08:48:33.596Z,14.96
2016-04-30T08:49:33.302Z,15.1
2016-04-30T08:50:33.462Z,15.09
2016-04-30T08:51:33.479Z,15.14
2016-04-30T08:53:33.876Z,15.11
2016-04-30T08:54:33.675Z,15.19
2016-04-30T08:55:33.661Z,15.17
2016-04-30T08:56:34.102Z,15.19
2016-04-30T08:57:33.714Z,15.21
2016-04-30T08:58:33.905Z,15.27
2016-04-30T08:59:34.094Z,15.23
2016-04-30T09:00:33.691Z,15.28
2016-04-30T09:01:47.791Z,15.35
2016-04-30T09:02:47.793Z,15.36
2016-04-30T09:03:33.558Z,15.29
2016-04-30T09:04:33.749Z,15.29
2016-04-30T09:05:33.955Z,15.34
2016-04-30T09:06:33.770Z,15.34
2016-04-30T09:07:34.116Z,15.35
2016-04-30T09:08:33.775Z,15.32
2016-04-30T09:09:33.810Z,15.38
2016-04-30T09:10:33.796Z,15.36
2016-04-30T09:11:33.798Z,15.31
2016-04-30T09:12:33.817Z,15.34
2016-04-30T09:13:33.804Z,15.34
2016-04-30T09:14:33.932Z,15.29
2016-04-30T09:15:33.840Z,15.38
2016-04-30T09:16:33.828Z,15.44
2016-04-30T09:17:33.846Z,15.49
2016-04-30T09:18:33.849Z,15.53
2016-04-30T09:19:35.445Z,15.51
2016-04-30T09:20:33.870Z,15.56
2016-04-30T09:21:34.076Z,15.56
2016-04-30T09:22:33.735Z,15.64
2016-04-30T09:23:33.753Z,15.57
2016-04-30T09:24:33.896Z,15.6
2016-04-30T09:25:47.996Z,15.68
2016-04-30T09:26:33.762Z,15.74
2016-04-30T09:27:33.919Z,15.74
2016-04-30T09:28:33.953Z,15.75
2016-04-30T09:29:48.037Z,15.71
2016-04-30T09:30:33.991Z,15.71
2016-04-30T09:31:33.508Z,15.71
2016-04-30T09:32:34.167Z,15.75
2016-04-30T09:33:33.983Z,15.74
2016-04-30T09:34:33.970Z,15.71
2016-04-30T09:35:34.019Z,15.75
2016-04-30T09:36:34.008Z,15.74
2016-04-30T09:37:33.885Z,15.78
2016-04-30T09:38:33.871Z,15.8
2016-04-30T09:39:34.249Z,15.86
2016-04-30T09:40:34.064Z,15.86
2016-04-30T09:41:34.052Z,15.89
2016-04-30T09:42:33.913Z,15.87
2016-04-30T09:43:33.932Z,15.92
2016-04-30T09:44:34.137Z,15.89
2016-04-30T09:45:34.516Z,15.92
2016-04-30T09:46:34.127Z,16.01
2016-04-30T09:47:34.114Z,16
2016-04-30T09:48:34.102Z,16.02
2016-04-30T09:49:34.620Z,15.97
2016-04-30T09:50:34.184Z,16.01
2016-04-30T09:51:34.344Z,16.04
2016-04-30T09:52:34.159Z,16.04
2016-04-30T09:53:48.274Z,16.07
2016-04-30T09:54:34.196Z,16.07
2016-04-30T09:55:48.326Z,16.17
2016-04-30T09:56:34.201Z,16.12
2016-04-30T09:57:34.281Z,16.14
2016-04-30T09:58:34.441Z,16.15
2016-04-30T09:59:34.240Z,16.33
2016-04-30T10:00:34.228Z,16.35
2016-04-30T10:01:34.245Z,16.42
2016-04-30T10:02:34.483Z,16.43
2016-04-30T10:03:34.283Z,16.53
2016-04-30T10:04:34.223Z,16.53
2016-04-30T10:05:34.288Z,16.49
2016-04-30T10:06:34.478Z,16.63
2016-04-30T10:07:34.324Z,16.6
2016-04-30T10:08:34.983Z,16.61
2016-04-30T10:10:34.566Z,16.66
2016-04-30T10:11:33.913Z,16.68
2016-04-30T10:12:34.354Z,16.75
2016-04-30T10:13:34.449Z,16.73
2016-04-30T10:14:48.658Z,16.83
2016-04-30T10:15:34.596Z,16.81
2016-04-30T10:16:34.630Z,16.91
2016-04-30T10:17:34.335Z,16.98
2016-04-30T10:18:34.307Z,16.93
2016-04-30T10:19:34.419Z,17.03
2016-04-30T10:20:34.437Z,17.15
2016-04-30T10:21:34.457Z,17.12
2016-04-30T10:22:34.459Z,17.16
2016-04-30T10:23:34.462Z,17.19
2016-04-30T10:24:34.465Z,17.36
2016-04-30T10:25:34.482Z,17.41
2016-04-30T10:26:34.922Z,17.4
2016-04-30T10:27:34.707Z,17.62
2016-04-30T10:28:34.553Z,17.62
2016-04-30T10:30:34.762Z,17.74
2016-04-30T10:31:34.389Z,17.72
2016-04-30T10:32:34.595Z,17.82
2016-04-30T10:33:34.582Z,17.81
2016-04-30T10:34:34.834Z,17.93
2016-04-30T10:35:34.619Z,17.89
2016-04-30T10:36:34.605Z,17.97
2016-04-30T10:37:34.453Z,17.96
2016-04-30T10:38:34.627Z,18
2016-04-30T10:39:34.817Z,18.03
2016-04-30T10:40:48.713Z,18.03
2016-04-30T10:41:34.682Z,17.96
2016-04-30T10:42:48.938Z,18.08
2016-04-30T10:43:34.734Z,17.99
2016-04-30T10:44:34.690Z,18.02
2016-04-30T10:45:34.693Z,17.99
2016-04-30T10:46:34.758Z,18
2016-04-30T10:47:34.729Z,18
2016-04-30T10:48:34.732Z,18
2016-04-30T10:49:34.844Z,18.15
2016-04-30T10:50:34.752Z,18.11
2016-04-30T10:51:34.959Z,18.15
2016-04-30T10:52:34.976Z,18.07
2016-04-30T10:53:34.824Z,18.15
2016-04-30T10:54:35.046Z,18.23
2016-04-30T10:56:35.019Z,18.21
2016-04-30T10:57:34.834Z,18.21
2016-04-30T10:59:34.887Z,18.36
2016-04-30T11:00:34.717Z,18.36
2016-04-30T11:01:34.892Z,18.35
2016-04-30T11:02:34.894Z,18.36
2016-04-30T11:03:35.163Z,18.47
2016-04-30T11:04:34.931Z,18.47
2016-04-30T11:05:35.355Z,18.58
2016-04-30T11:06:34.953Z,18.47
2016-04-30T11:07:34.642Z,18.55
2016-04-30T11:08:34.972Z,18.55
2016-04-30T11:09:35.164Z,18.65
2016-04-30T11:10:34.995Z,18.69
2016-04-30T11:11:35.013Z,18.73
2016-04-30T11:12:34.874Z,18.78
2016-04-30T11:13:35.846Z,18.84
2016-04-30T11:14:35.245Z,18.85
2016-04-30T11:15:34.541Z,18.87
2016-04-30T11:16:35.298Z,18.92
2016-04-30T11:17:35.077Z,19
2016-04-30T11:18:34.924Z,19.11
2016-04-30T11:19:35.708Z,18.98
2016-04-30T11:20:34.696Z,19.1
2016-04-30T11:21:35.104Z,19.1
2016-04-30T11:22:35.169Z,19.13
2016-04-30T11:23:34.984Z,19.19
2016-04-30T11:24:34.674Z,19.29
2016-04-30T11:25:35.037Z,19.25
2016-04-30T11:27:35.198Z,19.44
2016-04-30T11:28:35.404Z,19.5
2016-04-30T11:29:35.422Z,19.59
2016-04-30T11:30:35.081Z,19.62
2016-04-30T11:31:35.834Z,19.76
2016-04-30T11:32:35.242Z,19.78
2016-04-30T11:33:49.339Z,19.95
2016-04-30T11:34:35.280Z,19.86
2016-04-30T11:35:49.564Z,19.98
2016-04-30T11:36:35.301Z,20.05
2016-04-30T11:37:35.334Z,20.06
2016-04-30T11:38:35.336Z,20.16
2016-04-30T11:39:35.589Z,20.2
2016-04-30T11:40:34.889Z,20.28
2016-04-30T11:41:49.079Z,20.35
2016-04-30T11:42:35.411Z,20.33
2016-04-30T11:43:35.241Z,20.41
2016-04-30T11:44:35.432Z,20.55
2016-04-30T11:45:35.419Z,20.59
2016-04-30T11:46:35.281Z,20.7
2016-04-30T11:47:35.502Z,20.66
2016-04-30T11:48:35.707Z,20.88
2016-04-30T11:49:35.773Z,20.95
2016-04-30T11:50:35.494Z,20.97
2016-04-30T11:51:35.904Z,21.03
2016-04-30T11:52:49.624Z,21.06
2016-04-30T11:53:35.377Z,21.1
2016-04-30T11:54:35.583Z,21.16
2016-04-30T11:55:35.617Z,21.27
2016-04-30T11:56:36.010Z,21.38
2016-04-30T11:57:35.623Z,21.44
2016-04-30T11:58:35.609Z,21.43
2016-04-30T11:59:35.643Z,21.61
2016-04-30T12:00:35.490Z,21.65
2016-04-30T12:01:35.806Z,21.71
2016-04-30T12:02:35.699Z,21.69
2016-04-30T12:03:35.685Z,21.75
2016-04-30T12:04:36.016Z,21.77
2016-04-30T12:05:35.739Z,21.75
2016-04-30T12:06:35.584Z,21.83
2016-04-30T12:07:35.744Z,21.82
2016-04-30T12:08:50.028Z,21.83
2016-04-30T12:09:35.920Z,21.82
2016-04-30T12:10:36.219Z,21.82
2016-04-30T12:11:35.582Z,21.79
2016-04-30T12:12:35.835Z,21.77
2016-04-30T12:13:36.478Z,21.86
2016-04-30T12:15:36.108Z,21.83
2016-04-30T12:16:35.596Z,21.83
2016-04-30T12:17:35.754Z,21.8
2016-04-30T12:18:35.773Z,21.79
2016-04-30T12:19:36.869Z,21.84
2016-04-30T12:20:35.935Z,21.9
2016-04-30T12:21:36.202Z,21.98
2016-04-30T12:22:36.190Z,21.92
2016-04-30T12:23:36.051Z,22.05
2016-04-30T12:24:35.851Z,22.1
2016-04-30T12:25:36.026Z,22.15
2016-04-30T12:26:36.076Z,22.12
2016-04-30T12:28:35.784Z,22.09
2016-04-30T12:29:36.084Z,22.15
2016-04-30T12:30:36.306Z,22.18
2016-04-30T12:31:36.370Z,22.31
2016-04-30T12:32:36.153Z,22.27
2016-04-30T12:33:36.391Z,22.3
2016-04-30T12:34:37.144Z,22.25
2016-04-30T12:35:36.194Z,22.27
2016-04-30T12:36:36.211Z,22.28
2016-04-30T12:37:36.261Z,22.36
2016-04-30T12:38:36.088Z,22.25
2016-04-30T12:39:36.318Z,22.27
2016-04-30T12:40:36.206Z,22.21
2016-04-30T12:41:36.405Z,22.35
2016-04-30T12:42:36.323Z,22.21
2016-04-30T12:43:36.547Z,22.27
2016-04-30T12:44:36.549Z,22.33
2016-04-30T12:45:36.598Z,22.31
2016-04-30T12:46:36.459Z,22.35
2016-04-30T12:47:36.664Z,22.36
2016-04-30T12:48:36.694Z,22.4
2016-04-30T12:49:37.499Z,22.37
2016-04-30T12:50:36.726Z,22.47
2016-04-30T12:51:36.749Z,22.52
2016-04-30T12:52:36.757Z,22.52
2016-04-30T12:53:36.764Z,22.52
2016-04-30T12:54:36.847Z,22.39
2016-04-30T12:55:36.820Z,22.51
2016-04-30T12:56:36.872Z,22.57
2016-04-30T12:57:36.690Z,22.54
2016-04-30T12:58:37.256Z,22.52
2016-04-30T12:59:37.118Z,22.61
2016-04-30T13:00:36.762Z,22.57
2016-04-30T13:01:37.188Z,22.6
2016-04-30T13:02:36.815Z,22.67
2016-04-30T13:03:36.835Z,22.61
2016-04-30T13:04:38.244Z,22.55
2016-04-30T13:05:37.247Z,22.6
2016-04-30T13:06:36.875Z,22.6
2016-04-30T13:07:37.080Z,22.55
2016-04-30T13:08:37.255Z,22.58
2016-04-30T13:09:37.055Z,22.55
2016-04-30T13:10:37.105Z,22.57
2016-04-30T13:11:37.108Z,22.57
2016-04-30T13:12:36.954Z,22.57
2016-04-30T13:13:37.128Z,22.58
2016-04-30T13:14:37.146Z,22.67
2016-04-30T13:15:37.164Z,22.6
2016-04-30T13:16:37.199Z,22.65
2016-04-30T13:17:37.186Z,22.61
2016-04-30T13:18:37.236Z,22.67
2016-04-30T13:19:37.270Z,22.72
2016-04-30T13:20:37.271Z,22.65
2016-04-30T13:21:37.462Z,22.75
2016-04-30T13:22:37.277Z,22.68
2016-04-30T13:23:37.296Z,22.61
2016-04-30T13:24:37.299Z,22.72
2016-04-30T13:25:37.723Z,22.72
2016-04-30T13:26:37.335Z,22.64
2016-04-30T13:27:37.354Z,22.75
2016-04-30T13:28:37.371Z,22.77
2016-04-30T13:29:36.921Z,22.91
2016-04-30T13:30:37.392Z,22.83
2016-04-30T13:31:37.614Z,22.83
2016-04-30T13:33:37.463Z,22.91